Horton, Michigan
Current Conditions -  °F | °C
As of 12:56 AM on Friday 31 Oct 2014 (Local Time) from KJXN Reporting Station
Overcast Overcast  
Wind Chill: 42°   Ceiling: 3800
Heat Index: 44°   Visibility: 10mi
Dew Point: 36°   Wind: 5mph
Humidity: 73%   Direction: 210°SSW
Pressure: 29.98"   Gusts: NA
Location:  42.15°N, 84.52°W
Report Text: KJXN 310456Z 21004KT 10SM OVC038 07/02 A2998 RMK AO2 SLP158 T00670022 400891011
Loading
Personal Weather Stations






























Interactive Weather Map
Tropical Storm Tracking
New forecast layout! Learn more

10-Day Weather Forecast

Advertisements
Track Severe Weather on mobile